sensor_id;sensor_type;location;lat;lon;timestamp;P1;durP1;ratioP1;P2;durP2;ratioP2
69401;SDS011;56589;51.992;5.924;2022-08-03T00:00:45;8.52;;;1.83;;
69401;SDS011;56589;51.992;5.924;2022-08-03T00:03:11;8.60;;;1.83;;
69401;SDS011;56589;51.992;5.924;2022-08-03T00:05:37;8.13;;;1.88;;
69401;SDS011;56589;51.992;5.924;2022-08-03T00:08:02;9.23;;;2.75;;
69401;SDS011;56589;51.992;5.924;2022-08-03T00:10:29;8.05;;;1.80;;
69401;SDS011;56589;51.992;5.924;2022-08-03T00:12:55;8.57;;;1.90;;
69401;SDS011;56589;51.992;5.924;2022-08-03T00:15:23;9.25;;;1.90;;
69401;SDS011;56589;51.992;5.924;2022-08-03T00:17:49;7.07;;;2.50;;
69401;SDS011;56589;51.992;5.924;2022-08-03T00:20:15;7.63;;;1.75;;
69401;SDS011;56589;51.992;5.924;2022-08-03T00:22:40;16.73;;;2.72;;
69401;SDS011;56589;51.992;5.924;2022-08-03T00:25:06;9.45;;;1.70;;
69401;SDS011;56589;51.992;5.924;2022-08-03T00:27:32;8.23;;;1.90;;
69401;SDS011;56589;51.992;5.924;2022-08-03T00:29:58;6.82;;;1.67;;
69401;SDS011;56589;51.992;5.924;2022-08-03T00:32:26;9.23;;;1.67;;
69401;SDS011;56589;51.992;5.924;2022-08-03T00:34:52;9.40;;;1.77;;
69401;SDS011;56589;51.992;5.924;2022-08-03T00:37:18;10.45;;;2.03;;
69401;SDS011;56589;51.992;5.924;2022-08-03T00:39:44;7.45;;;2.08;;
69401;SDS011;56589;51.992;5.924;2022-08-03T00:42:09;4.30;;;1.55;;
69401;SDS011;56589;51.992;5.924;2022-08-03T00:44:37;8.55;;;1.77;;
69401;SDS011;56589;51.992;5.924;2022-08-03T00:47:04;8.30;;;1.73;;
69401;SDS011;56589;51.992;5.924;2022-08-03T00:49:32;8.35;;;1.92;;
69401;SDS011;56589;51.992;5.924;2022-08-03T00:51:59;9.27;;;1.95;;
69401;SDS011;56589;51.992;5.924;2022-08-03T00:54:25;9.95;;;1.63;;
69401;SDS011;56589;51.992;5.924;2022-08-03T00:56:52;5.82;;;1.63;;
69401;SDS011;56589;51.992;5.924;2022-08-03T00:59:18;6.88;;;2.10;;
69401;SDS011;56589;51.992;5.924;2022-08-03T01:01:45;6.15;;;1.65;;
69401;SDS011;56589;51.992;5.924;2022-08-03T01:04:11;9.25;;;2.10;;
69401;SDS011;56589;51.992;5.924;2022-08-03T01:06:40;9.63;;;1.85;;
69401;SDS011;56589;51.992;5.924;2022-08-03T01:09:30;8.57;;;1.85;;
69401;SDS011;56589;51.992;5.924;2022-08-03T01:12:12;8.50;;;2.38;;
69401;SDS011;56589;51.992;5.924;2022-08-03T01:14:50;10.82;;;1.73;;
69401;SDS011;56589;51.992;5.924;2022-08-03T01:17:28;5.65;;;1.70;;
69401;SDS011;56589;51.992;5.924;2022-08-03T01:20:08;10.85;;;1.95;;
69401;SDS011;56589;51.992;5.924;2022-08-03T01:26:11;11.80;;;2.15;;
69401;SDS011;56589;51.992;5.924;2022-08-03T01:29:02;8.43;;;2.35;;
69401;SDS011;56589;51.992;5.924;2022-08-03T01:31:51;10.10;;;1.95;;
69401;SDS011;56589;51.992;5.924;2022-08-03T01:34:27;5.70;;;1.77;;
69401;SDS011;56589;51.992;5.924;2022-08-03T01:36:58;10.45;;;2.00;;
69401;SDS011;56589;51.992;5.924;2022-08-03T01:39:31;7.05;;;2.13;;
69401;SDS011;56589;51.992;5.924;2022-08-03T01:42:02;11.32;;;1.88;;
69401;SDS011;56589;51.992;5.924;2022-08-03T01:44:32;6.93;;;2.28;;
69401;SDS011;56589;51.992;5.924;2022-08-03T01:47:06;6.73;;;1.90;;
69401;SDS011;56589;51.992;5.924;2022-08-03T01:49:37;9.35;;;2.40;;
69401;SDS011;56589;51.992;5.924;2022-08-03T01:52:07;9.85;;;2.03;;
69401;SDS011;56589;51.992;5.924;2022-08-03T01:54:35;10.07;;;3.25;;
69401;SDS011;56589;51.992;5.924;2022-08-03T01:57:07;12.55;;;2.05;;
69401;SDS011;56589;51.992;5.924;2022-08-03T01:59:35;10.02;;;1.70;;
69401;SDS011;56589;51.992;5.924;2022-08-03T02:02:06;7.47;;;2.38;;
69401;SDS011;56589;51.992;5.924;2022-08-03T02:07:05;8.88;;;2.42;;
69401;SDS011;56589;51.992;5.924;2022-08-03T02:09:33;9.65;;;2.25;;
69401;SDS011;56589;51.992;5.924;2022-08-03T02:12:03;8.35;;;1.90;;
69401;SDS011;56589;51.992;5.924;2022-08-03T02:14:34;10.13;;;1.85;;
69401;SDS011;56589;51.992;5.924;2022-08-03T02:17:08;9.25;;;2.40;;
69401;SDS011;56589;51.992;5.924;2022-08-03T02:19:36;9.50;;;2.05;;
69401;SDS011;56589;51.992;5.924;2022-08-03T02:22:04;7.85;;;2.05;;
69401;SDS011;56589;51.992;5.924;2022-08-03T02:24:37;8.38;;;2.83;;
69401;SDS011;56589;51.992;5.924;2022-08-03T02:27:04;5.47;;;2.00;;
69401;SDS011;56589;51.992;5.924;2022-08-03T02:29:52;10.50;;;2.00;;
69401;SDS011;56589;51.992;5.924;2022-08-03T02:32:33;9.15;;;2.38;;
69401;SDS011;56589;51.992;5.924;2022-08-03T02:35:05;5.72;;;1.85;;
69401;SDS011;56589;51.992;5.924;2022-08-03T02:40:08;5.88;;;1.80;;
69401;SDS011;56589;51.992;5.924;2022-08-03T02:42:37;10.18;;;2.20;;
69401;SDS011;56589;51.992;5.924;2022-08-03T02:45:06;6.90;;;2.33;;
69401;SDS011;56589;51.992;5.924;2022-08-03T02:47:38;8.90;;;2.15;;
69401;SDS011;56589;51.992;5.924;2022-08-03T02:50:07;10.32;;;1.88;;
69401;SDS011;56589;51.992;5.924;2022-08-03T02:52:36;7.93;;;2.40;;
69401;SDS011;56589;51.992;5.924;2022-08-03T02:55:06;5.70;;;2.65;;
69401;SDS011;56589;51.992;5.924;2022-08-03T02:57:35;7.65;;;2.38;;
69401;SDS011;56589;51.992;5.924;2022-08-03T03:00:04;7.80;;;2.03;;
69401;SDS011;56589;51.992;5.924;2022-08-03T03:02:32;15.40;;;3.15;;
69401;SDS011;56589;51.992;5.924;2022-08-03T03:05:03;8.88;;;2.60;;
69401;SDS011;56589;51.992;5.924;2022-08-03T03:07:32;5.68;;;2.30;;
69401;SDS011;56589;51.992;5.924;2022-08-03T03:10:00;6.38;;;2.03;;
69401;SDS011;56589;51.992;5.924;2022-08-03T03:12:27;10.68;;;3.13;;
69401;SDS011;56589;51.992;5.924;2022-08-03T03:14:55;10.80;;;2.60;;
69401;SDS011;56589;51.992;5.924;2022-08-03T03:17:21;5.22;;;2.17;;
69401;SDS011;56589;51.992;5.924;2022-08-03T03:19:49;4.88;;;2.25;;
69401;SDS011;56589;51.992;5.924;2022-08-03T03:22:18;8.07;;;2.50;;
69401;SDS011;56589;51.992;5.924;2022-08-03T03:24:47;5.35;;;2.28;;
69401;SDS011;56589;51.992;5.924;2022-08-03T03:27:14;6.57;;;2.35;;
69401;SDS011;56589;51.992;5.924;2022-08-03T03:29:41;7.35;;;2.45;;
69401;SDS011;56589;51.992;5.924;2022-08-03T03:32:07;6.20;;;2.20;;
69401;SDS011;56589;51.992;5.924;2022-08-03T03:34:33;6.60;;;2.40;;
69401;SDS011;56589;51.992;5.924;2022-08-03T03:37:01;7.35;;;2.40;;
69401;SDS011;56589;51.992;5.924;2022-08-03T03:39:29;7.07;;;2.72;;
69401;SDS011;56589;51.992;5.924;2022-08-03T03:41:55;6.03;;;2.25;;
69401;SDS011;56589;51.992;5.924;2022-08-03T03:44:24;7.88;;;2.58;;
69401;SDS011;56589;51.992;5.924;2022-08-03T03:46:51;11.57;;;2.83;;
69401;SDS011;56589;51.992;5.924;2022-08-03T03:49:17;8.98;;;2.40;;
69401;SDS011;56589;51.992;5.924;2022-08-03T03:51:43;11.30;;;2.78;;
69401;SDS011;56589;51.992;5.924;2022-08-03T03:54:09;9.10;;;3.22;;
69401;SDS011;56589;51.992;5.924;2022-08-03T03:56:37;9.48;;;3.30;;
69401;SDS011;56589;51.992;5.924;2022-08-03T03:59:03;11.90;;;2.83;;
69401;SDS011;56589;51.992;5.924;2022-08-03T04:01:29;12.25;;;3.40;;
69401;SDS011;56589;51.992;5.924;2022-08-03T04:03:55;9.95;;;2.80;;
69401;SDS011;56589;51.992;5.924;2022-08-03T04:06:21;12.57;;;3.20;;
69401;SDS011;56589;51.992;5.924;2022-08-03T04:08:47;13.90;;;3.55;;
69401;SDS011;56589;51.992;5.924;2022-08-03T04:11:13;7.65;;;2.80;;
69401;SDS011;56589;51.992;5.924;2022-08-03T04:13:49;9.25;;;2.72;;
69401;SDS011;56589;51.992;5.924;2022-08-03T04:16:21;7.60;;;3.28;;
69401;SDS011;56589;51.992;5.924;2022-08-03T04:18:52;6.80;;;2.80;;
69401;SDS011;56589;51.992;5.924;2022-08-03T04:21:23;6.80;;;2.97;;
69401;SDS011;56589;51.992;5.924;2022-08-03T04:23:53;8.15;;;3.47;;
69401;SDS011;56589;51.992;5.924;2022-08-03T04:26:26;12.43;;;3.40;;
69401;SDS011;56589;51.992;5.924;2022-08-03T04:29:02;14.38;;;3.25;;
69401;SDS011;56589;51.992;5.924;2022-08-03T04:31:30;10.80;;;3.20;;
69401;SDS011;56589;51.992;5.924;2022-08-03T04:33:59;8.50;;;3.05;;
69401;SDS011;56589;51.992;5.924;2022-08-03T04:36:26;9.90;;;3.22;;
69401;SDS011;56589;51.992;5.924;2022-08-03T04:39:03;8.68;;;2.95;;
69401;SDS011;56589;51.992;5.924;2022-08-03T04:41:39;14.15;;;3.58;;
69401;SDS011;56589;51.992;5.924;2022-08-03T04:44:10;8.65;;;3.00;;
69401;SDS011;56589;51.992;5.924;2022-08-03T04:46:39;15.77;;;3.47;;
69401;SDS011;56589;51.992;5.924;2022-08-03T04:49:07;7.78;;;3.63;;
69401;SDS011;56589;51.992;5.924;2022-08-03T04:51:34;11.38;;;3.28;;
69401;SDS011;56589;51.992;5.924;2022-08-03T04:54:02;18.15;;;3.95;;
69401;SDS011;56589;51.992;5.924;2022-08-03T04:56:28;11.57;;;3.50;;
69401;SDS011;56589;51.992;5.924;2022-08-03T04:58:54;13.43;;;3.83;;
69401;SDS011;56589;51.992;5.924;2022-08-03T05:01:22;11.48;;;3.50;;
69401;SDS011;56589;51.992;5.924;2022-08-03T05:03:48;11.27;;;3.70;;
69401;SDS011;56589;51.992;5.924;2022-08-03T05:06:13;7.72;;;3.55;;
69401;SDS011;56589;51.992;5.924;2022-08-03T05:08:39;10.55;;;3.53;;
69401;SDS011;56589;51.992;5.924;2022-08-03T05:11:05;9.50;;;3.63;;
69401;SDS011;56589;51.992;5.924;2022-08-03T05:13:31;13.80;;;3.42;;
69401;SDS011;56589;51.992;5.924;2022-08-03T05:15:56;10.05;;;4.03;;
69401;SDS011;56589;51.992;5.924;2022-08-03T05:18:25;16.75;;;4.43;;
69401;SDS011;56589;51.992;5.924;2022-08-03T05:20:50;10.05;;;3.33;;
69401;SDS011;56589;51.992;5.924;2022-08-03T05:23:16;9.80;;;3.70;;
69401;SDS011;56589;51.992;5.924;2022-08-03T05:25:42;14.18;;;5.55;;
69401;SDS011;56589;51.992;5.924;2022-08-03T05:28:08;9.23;;;3.90;;
69401;SDS011;56589;51.992;5.924;2022-08-03T05:30:33;15.20;;;3.95;;
69401;SDS011;56589;51.992;5.924;2022-08-03T05:33:01;9.25;;;3.80;;
69401;SDS011;56589;51.992;5.924;2022-08-03T05:35:30;10.15;;;3.33;;
69401;SDS011;56589;51.992;5.924;2022-08-03T05:37:57;14.15;;;3.80;;
69401;SDS011;56589;51.992;5.924;2022-08-03T05:40:22;13.82;;;3.72;;
69401;SDS011;56589;51.992;5.924;2022-08-03T05:42:48;9.15;;;3.30;;
69401;SDS011;56589;51.992;5.924;2022-08-03T05:45:14;10.70;;;3.20;;
69401;SDS011;56589;51.992;5.924;2022-08-03T05:47:40;9.45;;;3.15;;
69401;SDS011;56589;51.992;5.924;2022-08-03T05:50:06;10.23;;;3.30;;
69401;SDS011;56589;51.992;5.924;2022-08-03T05:52:36;8.57;;;2.75;;
69401;SDS011;56589;51.992;5.924;2022-08-03T05:55:02;8.25;;;3.45;;
69401;SDS011;56589;51.992;5.924;2022-08-03T05:57:29;9.32;;;3.38;;
69401;SDS011;56589;51.992;5.924;2022-08-03T05:59:55;9.18;;;3.30;;
69401;SDS011;56589;51.992;5.924;2022-08-03T06:02:20;11.30;;;2.80;;
69401;SDS011;56589;51.992;5.924;2022-08-03T06:04:46;10.18;;;2.65;;
69401;SDS011;56589;51.992;5.924;2022-08-03T06:07:12;10.95;;;3.67;;
69401;SDS011;56589;51.992;5.924;2022-08-03T06:09:40;10.48;;;2.53;;
69401;SDS011;56589;51.992;5.924;2022-08-03T06:12:06;7.45;;;2.60;;
69401;SDS011;56589;51.992;5.924;2022-08-03T06:14:32;13.65;;;2.55;;
69401;SDS011;56589;51.992;5.924;2022-08-03T06:16:58;10.93;;;2.58;;
69401;SDS011;56589;51.992;5.924;2022-08-03T06:19:23;5.80;;;2.20;;
69401;SDS011;56589;51.992;5.924;2022-08-03T06:21:49;7.32;;;2.58;;
69401;SDS011;56589;51.992;5.924;2022-08-03T06:24:15;9.18;;;2.22;;
69401;SDS011;56589;51.992;5.924;2022-08-03T06:26:43;11.70;;;2.67;;
69401;SDS011;56589;51.992;5.924;2022-08-03T06:29:09;8.60;;;2.53;;
69401;SDS011;56589;51.992;5.924;2022-08-03T06:31:35;10.00;;;2.40;;
69401;SDS011;56589;51.992;5.924;2022-08-03T06:34:01;7.05;;;1.90;;
69401;SDS011;56589;51.992;5.924;2022-08-03T06:36:29;13.98;;;2.47;;
69401;SDS011;56589;51.992;5.924;2022-08-03T06:38:55;6.50;;;1.95;;
69401;SDS011;56589;51.992;5.924;2022-08-03T06:41:21;8.65;;;2.05;;
69401;SDS011;56589;51.992;5.924;2022-08-03T06:43:49;12.15;;;1.92;;
69401;SDS011;56589;51.992;5.924;2022-08-03T06:46:15;10.23;;;2.03;;
69401;SDS011;56589;51.992;5.924;2022-08-03T06:48:41;13.30;;;2.70;;
69401;SDS011;56589;51.992;5.924;2022-08-03T06:51:07;10.20;;;2.58;;
69401;SDS011;56589;51.992;5.924;2022-08-03T06:53:33;11.90;;;3.05;;
69401;SDS011;56589;51.992;5.924;2022-08-03T06:55:58;11.73;;;2.65;;
69401;SDS011;56589;51.992;5.924;2022-08-03T06:58:24;12.20;;;1.90;;
69401;SDS011;56589;51.992;5.924;2022-08-03T07:00:53;10.50;;;2.20;;
69401;SDS011;56589;51.992;5.924;2022-08-03T07:03:18;10.25;;;2.53;;
69401;SDS011;56589;51.992;5.924;2022-08-03T07:05:44;13.15;;;2.03;;
69401;SDS011;56589;51.992;5.924;2022-08-03T07:08:10;10.05;;;2.25;;
69401;SDS011;56589;51.992;5.924;2022-08-03T07:10:36;10.10;;;3.15;;
69401;SDS011;56589;51.992;5.924;2022-08-03T07:13:02;11.10;;;2.25;;
69401;SDS011;56589;51.992;5.924;2022-08-03T07:15:28;11.60;;;2.10;;
69401;SDS011;56589;51.992;5.924;2022-08-03T07:17:56;15.00;;;3.05;;
69401;SDS011;56589;51.992;5.924;2022-08-03T07:20:22;13.73;;;3.10;;
69401;SDS011;56589;51.992;5.924;2022-08-03T07:22:48;13.30;;;2.47;;
69401;SDS011;56589;51.992;5.924;2022-08-03T07:25:14;11.07;;;2.28;;
69401;SDS011;56589;51.992;5.924;2022-08-03T07:27:41;13.43;;;2.97;;
69401;SDS011;56589;51.992;5.924;2022-08-03T07:30:08;16.00;;;3.03;;
69401;SDS011;56589;51.992;5.924;2022-08-03T07:32:35;9.52;;;2.63;;
69401;SDS011;56589;51.992;5.924;2022-08-03T07:35:04;11.85;;;2.47;;
69401;SDS011;56589;51.992;5.924;2022-08-03T07:37:32;13.13;;;2.92;;
69401;SDS011;56589;51.992;5.924;2022-08-03T07:39:58;13.05;;;3.28;;
69401;SDS011;56589;51.992;5.924;2022-08-03T07:42:25;10.43;;;2.28;;
69401;SDS011;56589;51.992;5.924;2022-08-03T07:44:51;14.57;;;3.10;;
69401;SDS011;56589;51.992;5.924;2022-08-03T07:47:17;12.00;;;2.33;;
69401;SDS011;56589;51.992;5.924;2022-08-03T07:49:43;13.18;;;2.13;;
69401;SDS011;56589;51.992;5.924;2022-08-03T07:52:12;17.42;;;2.88;;
69401;SDS011;56589;51.992;5.924;2022-08-03T07:54:37;13.98;;;2.30;;
69401;SDS011;56589;51.992;5.924;2022-08-03T07:57:03;11.23;;;2.25;;
69401;SDS011;56589;51.992;5.924;2022-08-03T07:59:29;10.00;;;1.95;;
69401;SDS011;56589;51.992;5.924;2022-08-03T08:01:54;14.10;;;2.20;;
69401;SDS011;56589;51.992;5.924;2022-08-03T08:04:20;13.35;;;2.65;;
69401;SDS011;56589;51.992;5.924;2022-08-03T08:06:46;8.77;;;2.28;;
69401;SDS011;56589;51.992;5.924;2022-08-03T08:09:14;16.35;;;2.40;;
69401;SDS011;56589;51.992;5.924;2022-08-03T08:11:40;8.90;;;1.73;;
69401;SDS011;56589;51.992;5.924;2022-08-03T08:14:06;15.23;;;2.47;;
69401;SDS011;56589;51.992;5.924;2022-08-03T08:16:32;12.43;;;2.65;;
69401;SDS011;56589;51.992;5.924;2022-08-03T08:18:57;15.55;;;2.08;;
69401;SDS011;56589;51.992;5.924;2022-08-03T08:21:23;12.40;;;2.30;;
69401;SDS011;56589;51.992;5.924;2022-08-03T08:23:49;14.00;;;2.50;;
69401;SDS011;56589;51.992;5.924;2022-08-03T08:26:17;10.90;;;2.10;;
69401;SDS011;56589;51.992;5.924;2022-08-03T08:28:43;12.90;;;2.53;;
69401;SDS011;56589;51.992;5.924;2022-08-03T08:31:09;20.05;;;2.72;;
69401;SDS011;56589;51.992;5.924;2022-08-03T08:33:34;14.77;;;2.38;;
69401;SDS011;56589;51.992;5.924;2022-08-03T08:36:00;14.82;;;2.80;;
69401;SDS011;56589;51.992;5.924;2022-08-03T08:38:26;12.30;;;2.97;;
69401;SDS011;56589;51.992;5.924;2022-08-03T08:40:53;21.58;;;2.25;;
69401;SDS011;56589;51.992;5.924;2022-08-03T08:43:22;18.55;;;2.47;;
69401;SDS011;56589;51.992;5.924;2022-08-03T08:45:48;15.05;;;2.33;;
69401;SDS011;56589;51.992;5.924;2022-08-03T08:48:17;11.95;;;2.53;;
69401;SDS011;56589;51.992;5.924;2022-08-03T08:50:51;15.65;;;2.50;;
69401;SDS011;56589;51.992;5.924;2022-08-03T08:53:17;15.07;;;2.30;;
69401;SDS011;56589;51.992;5.924;2022-08-03T08:55:45;9.63;;;2.25;;
69401;SDS011;56589;51.992;5.924;2022-08-03T08:58:14;13.18;;;3.10;;
69401;SDS011;56589;51.992;5.924;2022-08-03T09:00:45;11.82;;;2.30;;
69401;SDS011;56589;51.992;5.924;2022-08-03T09:03:11;14.93;;;2.60;;
69401;SDS011;56589;51.992;5.924;2022-08-03T09:05:38;18.88;;;2.83;;
69401;SDS011;56589;51.992;5.924;2022-08-03T09:08:07;16.05;;;2.33;;
69401;SDS011;56589;51.992;5.924;2022-08-03T09:10:33;12.30;;;3.33;;
69401;SDS011;56589;51.992;5.924;2022-08-03T09:12:59;16.70;;;2.72;;
69401;SDS011;56589;51.992;5.924;2022-08-03T09:15:26;14.55;;;2.80;;
69401;SDS011;56589;51.992;5.924;2022-08-03T09:17:57;13.70;;;2.38;;
69401;SDS011;56589;51.992;5.924;2022-08-03T09:20:25;17.13;;;3.92;;
69401;SDS011;56589;51.992;5.924;2022-08-03T09:22:54;12.65;;;2.70;;
69401;SDS011;56589;51.992;5.924;2022-08-03T09:25:27;17.55;;;2.28;;
69401;SDS011;56589;51.992;5.924;2022-08-03T09:28:04;13.45;;;2.38;;
69401;SDS011;56589;51.992;5.924;2022-08-03T09:30:33;12.73;;;2.67;;
69401;SDS011;56589;51.992;5.924;2022-08-03T09:33:02;15.93;;;2.38;;
69401;SDS011;56589;51.992;5.924;2022-08-03T09:35:29;17.63;;;3.38;;
69401;SDS011;56589;51.992;5.924;2022-08-03T09:38:09;17.30;;;2.50;;
69401;SDS011;56589;51.992;5.924;2022-08-03T09:40:37;13.80;;;2.42;;
69401;SDS011;56589;51.992;5.924;2022-08-03T09:43:06;14.05;;;2.45;;
69401;SDS011;56589;51.992;5.924;2022-08-03T09:45:33;19.02;;;3.28;;
69401;SDS011;56589;51.992;5.924;2022-08-03T09:48:11;12.60;;;2.65;;
69401;SDS011;56589;51.992;5.924;2022-08-03T09:50:49;16.75;;;2.65;;
69401;SDS011;56589;51.992;5.924;2022-08-03T09:53:16;12.40;;;2.28;;
69401;SDS011;56589;51.992;5.924;2022-08-03T09:55:49;20.75;;;2.63;;
69401;SDS011;56589;51.992;5.924;2022-08-03T09:58:18;16.15;;;3.28;;
69401;SDS011;56589;51.992;5.924;2022-08-03T10:00:52;18.65;;;3.42;;
69401;SDS011;56589;51.992;5.924;2022-08-03T10:03:24;15.85;;;2.60;;
69401;SDS011;56589;51.992;5.924;2022-08-03T10:05:53;14.60;;;2.47;;
69401;SDS011;56589;51.992;5.924;2022-08-03T10:08:19;14.68;;;2.67;;
69401;SDS011;56589;51.992;5.924;2022-08-03T10:10:46;12.20;;;2.60;;
69401;SDS011;56589;51.992;5.924;2022-08-03T10:13:15;18.65;;;2.38;;
69401;SDS011;56589;51.992;5.924;2022-08-03T10:15:42;17.58;;;2.63;;
69401;SDS011;56589;51.992;5.924;2022-08-03T10:18:09;9.15;;;2.22;;
69401;SDS011;56589;51.992;5.924;2022-08-03T10:20:40;14.68;;;2.58;;
69401;SDS011;56589;51.992;5.924;2022-08-03T10:23:10;15.45;;;2.80;;
69401;SDS011;56589;51.992;5.924;2022-08-03T10:25:40;13.40;;;3.47;;
69401;SDS011;56589;51.992;5.924;2022-08-03T10:28:11;18.25;;;2.30;;
69401;SDS011;56589;51.992;5.924;2022-08-03T10:30:40;18.08;;;2.85;;
69401;SDS011;56589;51.992;5.924;2022-08-03T10:33:13;17.60;;;2.50;;
69401;SDS011;56589;51.992;5.924;2022-08-03T10:35:47;17.40;;;2.65;;
69401;SDS011;56589;51.992;5.924;2022-08-03T10:38:19;21.20;;;2.78;;
69401;SDS011;56589;51.992;5.924;2022-08-03T10:41:01;23.23;;;2.70;;
69401;SDS011;56589;51.992;5.924;2022-08-03T10:43:32;12.02;;;2.47;;
69401;SDS011;56589;51.992;5.924;2022-08-03T10:46:05;15.98;;;2.40;;
69401;SDS011;56589;51.992;5.924;2022-08-03T10:48:32;14.90;;;1.98;;
69401;SDS011;56589;51.992;5.924;2022-08-03T10:51:03;17.58;;;3.03;;
69401;SDS011;56589;51.992;5.924;2022-08-03T10:53:35;10.80;;;2.20;;
69401;SDS011;56589;51.992;5.924;2022-08-03T10:56:03;14.40;;;2.38;;
69401;SDS011;56589;51.992;5.924;2022-08-03T10:58:45;11.60;;;2.40;;
69401;SDS011;56589;51.992;5.924;2022-08-03T11:01:12;15.00;;;2.25;;
69401;SDS011;56589;51.992;5.924;2022-08-03T11:06:43;15.93;;;2.13;;
69401;SDS011;56589;51.992;5.924;2022-08-03T11:09:14;14.88;;;2.58;;
69401;SDS011;56589;51.992;5.924;2022-08-03T11:11:43;13.65;;;2.13;;
69401;SDS011;56589;51.992;5.924;2022-08-03T11:14:12;13.15;;;2.28;;
69401;SDS011;56589;51.992;5.924;2022-08-03T11:16:42;13.65;;;2.10;;
69401;SDS011;56589;51.992;5.924;2022-08-03T11:19:11;13.90;;;2.13;;
69401;SDS011;56589;51.992;5.924;2022-08-03T11:21:58;12.70;;;2.40;;
69401;SDS011;56589;51.992;5.924;2022-08-03T11:27:31;15.25;;;2.38;;
69401;SDS011;56589;51.992;5.924;2022-08-03T11:29:59;14.73;;;2.88;;
69401;SDS011;56589;51.992;5.924;2022-08-03T11:38:02;14.50;;;3.22;;
69401;SDS011;56589;51.992;5.924;2022-08-03T11:40:40;15.73;;;2.03;;
69401;SDS011;56589;51.992;5.924;2022-08-03T11:43:08;12.07;;;2.00;;
69401;SDS011;56589;51.992;5.924;2022-08-03T11:46:09;11.55;;;2.30;;
69401;SDS011;56589;51.992;5.924;2022-08-03T11:48:38;8.43;;;1.85;;
69401;SDS011;56589;51.992;5.924;2022-08-03T11:51:07;13.25;;;2.40;;
69401;SDS011;56589;51.992;5.924;2022-08-03T11:53:48;10.90;;;1.67;;
69401;SDS011;56589;51.992;5.924;2022-08-03T11:56:16;11.73;;;1.92;;
69401;SDS011;56589;51.992;5.924;2022-08-03T11:58:45;14.23;;;1.95;;
69401;SDS011;56589;51.992;5.924;2022-08-03T12:01:13;14.15;;;1.98;;
69401;SDS011;56589;51.992;5.924;2022-08-03T12:03:39;15.18;;;2.33;;
69401;SDS011;56589;51.992;5.924;2022-08-03T12:06:07;11.57;;;1.92;;
69401;SDS011;56589;51.992;5.924;2022-08-03T12:08:35;8.40;;;1.70;;
69401;SDS011;56589;51.992;5.924;2022-08-03T12:11:04;14.35;;;1.90;;
69401;SDS011;56589;51.992;5.924;2022-08-03T12:13:35;11.02;;;2.10;;
69401;SDS011;56589;51.992;5.924;2022-08-03T12:16:04;18.17;;;2.23;;
69401;SDS011;56589;51.992;5.924;2022-08-03T12:18:29;12.80;;;2.20;;
69401;SDS011;56589;51.992;5.924;2022-08-03T12:21:02;12.77;;;2.03;;
69401;SDS011;56589;51.992;5.924;2022-08-03T12:23:31;17.95;;;3.22;;
69401;SDS011;56589;51.992;5.924;2022-08-03T12:26:00;17.70;;;2.15;;
69401;SDS011;56589;51.992;5.924;2022-08-03T12:28:31;14.35;;;1.90;;
69401;SDS011;56589;51.992;5.924;2022-08-03T12:31:00;16.30;;;2.42;;
69401;SDS011;56589;51.992;5.924;2022-08-03T12:33:28;10.15;;;2.22;;
69401;SDS011;56589;51.992;5.924;2022-08-03T12:36:03;13.80;;;2.30;;
69401;SDS011;56589;51.992;5.924;2022-08-03T12:38:32;11.45;;;1.65;;
69401;SDS011;56589;51.992;5.924;2022-08-03T12:41:04;10.30;;;2.63;;
69401;SDS011;56589;51.992;5.924;2022-08-03T12:43:31;10.97;;;2.03;;
69401;SDS011;56589;51.992;5.924;2022-08-03T12:46:07;10.43;;;2.00;;
69401;SDS011;56589;51.992;5.924;2022-08-03T12:48:35;11.77;;;1.95;;
69401;SDS011;56589;51.992;5.924;2022-08-03T12:51:07;15.27;;;2.47;;
69401;SDS011;56589;51.992;5.924;2022-08-03T12:53:33;11.25;;;2.28;;
69401;SDS011;56589;51.992;5.924;2022-08-03T12:56:03;10.60;;;2.17;;
69401;SDS011;56589;51.992;5.924;2022-08-03T12:58:30;9.63;;;2.03;;
69401;SDS011;56589;51.992;5.924;2022-08-03T13:00:58;8.25;;;1.33;;
69401;SDS011;56589;51.992;5.924;2022-08-03T13:03:24;8.90;;;1.48;;
69401;SDS011;56589;51.992;5.924;2022-08-03T13:05:50;10.57;;;1.40;;
69401;SDS011;56589;51.992;5.924;2022-08-03T13:08:16;9.07;;;1.58;;
69401;SDS011;56589;51.992;5.924;2022-08-03T13:10:43;9.75;;;1.95;;
69401;SDS011;56589;51.992;5.924;2022-08-03T13:13:12;13.25;;;1.70;;
69401;SDS011;56589;51.992;5.924;2022-08-03T13:15:38;10.20;;;1.83;;
69401;SDS011;56589;51.992;5.924;2022-08-03T13:18:03;8.65;;;1.83;;
69401;SDS011;56589;51.992;5.924;2022-08-03T13:20:29;8.27;;;1.50;;
69401;SDS011;56589;51.992;5.924;2022-08-03T13:22:55;4.30;;;1.27;;
69401;SDS011;56589;51.992;5.924;2022-08-03T13:25:21;5.30;;;1.42;;
69401;SDS011;56589;51.992;5.924;2022-08-03T13:27:48;8.70;;;1.70;;
69401;SDS011;56589;51.992;5.924;2022-08-03T13:30:17;9.25;;;1.60;;
69401;SDS011;56589;51.992;5.924;2022-08-03T13:32:43;8.00;;;1.52;;
69401;SDS011;56589;51.992;5.924;2022-08-03T13:35:09;11.02;;;1.65;;
69401;SDS011;56589;51.992;5.924;2022-08-03T13:37:35;6.93;;;1.25;;
69401;SDS011;56589;51.992;5.924;2022-08-03T13:40:02;5.28;;;1.45;;
69401;SDS011;56589;51.992;5.924;2022-08-03T13:42:31;8.18;;;1.85;;
69401;SDS011;56589;51.992;5.924;2022-08-03T13:44:59;7.50;;;1.50;;
69401;SDS011;56589;51.992;5.924;2022-08-03T13:47:29;10.93;;;1.58;;
69401;SDS011;56589;51.992;5.924;2022-08-03T13:49:54;4.18;;;1.20;;
69401;SDS011;56589;51.992;5.924;2022-08-03T13:52:20;5.25;;;1.33;;
69401;SDS011;56589;51.992;5.924;2022-08-03T13:54:46;5.35;;;1.10;;
69401;SDS011;56589;51.992;5.924;2022-08-03T13:57:12;7.43;;;1.35;;
69401;SDS011;56589;51.992;5.924;2022-08-03T13:59:37;10.07;;;1.92;;
69401;SDS011;56589;51.992;5.924;2022-08-03T14:02:03;5.18;;;0.98;;
69401;SDS011;56589;51.992;5.924;2022-08-03T14:04:32;6.20;;;1.20;;
69401;SDS011;56589;51.992;5.924;2022-08-03T14:06:57;4.93;;;1.40;;
69401;SDS011;56589;51.992;5.924;2022-08-03T14:09:23;5.07;;;1.02;;
69401;SDS011;56589;51.992;5.924;2022-08-03T14:11:49;3.65;;;1.40;;
69401;SDS011;56589;51.992;5.924;2022-08-03T14:14:14;4.63;;;1.20;;
69401;SDS011;56589;51.992;5.924;2022-08-03T14:16:40;6.03;;;1.35;;
69401;SDS011;56589;51.992;5.924;2022-08-03T14:19:06;2.83;;;0.98;;
69401;SDS011;56589;51.992;5.924;2022-08-03T14:21:34;7.40;;;1.30;;
69401;SDS011;56589;51.992;5.924;2022-08-03T14:24:01;5.78;;;1.17;;
69401;SDS011;56589;51.992;5.924;2022-08-03T14:26:27;4.45;;;1.13;;
69401;SDS011;56589;51.992;5.924;2022-08-03T14:28:53;7.88;;;1.40;;
69401;SDS011;56589;51.992;5.924;2022-08-03T14:31:19;7.68;;;1.58;;
69401;SDS011;56589;51.992;5.924;2022-08-03T14:33:45;6.60;;;1.33;;
69401;SDS011;56589;51.992;5.924;2022-08-03T14:36:10;3.65;;;1.27;;
69401;SDS011;56589;51.992;5.924;2022-08-03T14:38:39;3.88;;;0.90;;
69401;SDS011;56589;51.992;5.924;2022-08-03T14:41:04;3.85;;;1.23;;
69401;SDS011;56589;51.992;5.924;2022-08-03T14:43:30;2.78;;;1.02;;
69401;SDS011;56589;51.992;5.924;2022-08-03T14:45:56;4.55;;;1.42;;
69401;SDS011;56589;51.992;5.924;2022-08-03T14:48:24;3.35;;;0.80;;
69401;SDS011;56589;51.992;5.924;2022-08-03T14:50:50;4.47;;;1.15;;
69401;SDS011;56589;51.992;5.924;2022-08-03T14:53:16;5.85;;;1.50;;
69401;SDS011;56589;51.992;5.924;2022-08-03T14:55:45;3.70;;;1.00;;
69401;SDS011;56589;51.992;5.924;2022-08-03T14:58:12;3.05;;;1.17;;
69401;SDS011;56589;51.992;5.924;2022-08-03T15:00:37;4.28;;;1.20;;
69401;SDS011;56589;51.992;5.924;2022-08-03T15:03:03;4.20;;;0.93;;
69401;SDS011;56589;51.992;5.924;2022-08-03T15:05:29;3.50;;;1.15;;
69401;SDS011;56589;51.992;5.924;2022-08-03T15:07:55;5.03;;;1.10;;